Terminal Aerodrome Forecast
Issued by NWS Newport/Morehead City, NC

Home | Current Version | Previous Version | Text Only | Print | Product List | Glossary Off
Versions: 1 2 3 4 5 6 7 8 9 10 11 12 13 14

330
FTUS42 KMHX 271120
TAFEWN
TAF
KEWN 271120Z 2712/2812 19003KT P6SM SKC
     FM271500 21008KT P6SM SCT080
     FM280600 20004KT P6SM BKN200=

USA.gov is the U.S. government's official web portal to all federal, state and local government web resources and services.